createdAt,value
2018-02-18T00:00:48.222Z,0
2018-02-18T00:01:57.455Z,0
2018-02-18T00:03:06.503Z,0
2018-02-18T00:04:15.508Z,0
2018-02-18T00:05:24.747Z,0
2018-02-18T00:06:33.983Z,0
2018-02-18T00:07:43.218Z,0
2018-02-18T00:08:52.751Z,0
2018-02-18T00:10:01.452Z,0
2018-02-18T00:11:10.710Z,0
2018-02-18T00:12:19.970Z,0
2018-02-18T00:13:28.984Z,0
2018-02-18T00:14:37.708Z,0
2018-02-18T00:15:46.717Z,0
2018-02-18T00:16:55.679Z,0
2018-02-18T00:18:04.934Z,0
2018-02-18T00:19:14.180Z,0
2018-02-18T00:20:23.775Z,0
2018-02-18T00:21:32.546Z,0
2018-02-18T00:22:42.356Z,0
2018-02-18T00:23:51.581Z,0
2018-02-18T00:25:01.351Z,0
2018-02-18T00:26:10.335Z,0
2018-02-18T00:27:19.224Z,0
2018-02-18T00:28:28.783Z,0
2018-02-18T00:29:37.751Z,0
2018-02-18T00:30:46.740Z,0
2018-02-18T00:31:55.985Z,0
2018-02-18T00:33:05.313Z,0
2018-02-18T00:34:14.302Z,0
2018-02-18T00:35:23.299Z,0
2018-02-18T00:36:32.264Z,0
2018-02-18T00:37:40.968Z,0
2018-02-18T00:38:50.209Z,0
2018-02-18T00:39:59.196Z,0
2018-02-18T00:41:09.027Z,0
2018-02-18T00:42:18.057Z,0
2018-02-18T00:43:27.307Z,0
2018-02-18T00:44:36.819Z,0
2018-02-18T00:45:45.774Z,0
2018-02-18T00:46:54.854Z,0
2018-02-18T00:48:03.671Z,0
2018-02-18T00:49:12.689Z,0
2018-02-18T00:50:21.699Z,0
2018-02-18T00:51:30.937Z,0
2018-02-18T00:52:40.218Z,0
2018-02-18T00:53:49.174Z,0
2018-02-18T00:54:58.412Z,0
2018-02-18T00:56:07.166Z,0
2018-02-18T00:57:16.682Z,0
2018-02-18T00:58:25.704Z,0
2018-02-18T00:59:34.934Z,0
2018-02-18T01:00:44.190Z,0
2018-02-18T01:01:53.399Z,0
2018-02-18T01:03:03.329Z,0
2018-02-18T01:04:12.296Z,0
2018-02-18T01:05:21.265Z,0
2018-02-18T01:06:30.264Z,0
2018-02-18T01:07:40.272Z,0
2018-02-18T01:08:49.526Z,0
2018-02-18T01:09:58.478Z,0
2018-02-18T01:11:07.684Z,0
2018-02-18T01:12:16.914Z,0
2018-02-18T01:13:26.692Z,0
2018-02-18T01:14:35.653Z,0
2018-02-18T01:15:44.939Z,0
2018-02-18T01:16:53.965Z,0
2018-02-18T01:18:03.170Z,0
2018-02-18T01:19:12.467Z,0
2018-02-18T01:20:21.417Z,0
2018-02-18T01:21:30.680Z,0
2018-02-18T01:22:40.027Z,0
2018-02-18T01:23:49.254Z,0
2018-02-18T01:24:58.246Z,0
2018-02-18T01:26:06.924Z,0
2018-02-18T01:27:16.230Z,0
2018-02-18T01:28:25.478Z,0
2018-02-18T01:29:34.721Z,0
2018-02-18T01:30:43.678Z,0
2018-02-18T01:31:52.893Z,0
2018-02-18T01:33:01.588Z,0
2018-02-18T01:34:10.533Z,0
2018-02-18T01:35:19.744Z,0
2018-02-18T01:36:28.432Z,0
2018-02-18T01:37:37.660Z,0
2018-02-18T01:38:46.348Z,0
2018-02-18T01:39:55.824Z,0
2018-02-18T01:41:04.816Z,0
2018-02-18T01:42:14.013Z,0
2018-02-18T01:43:23.239Z,0
2018-02-18T01:44:32.307Z,0
2018-02-18T01:45:42.047Z,0
2018-02-18T01:46:50.711Z,0
2018-02-18T01:47:59.677Z,0
2018-02-18T01:49:08.896Z,0
2018-02-18T01:50:17.667Z,0
2018-02-18T01:51:27.197Z,0
2018-02-18T01:52:35.881Z,0
2018-02-18T01:53:45.129Z,0
2018-02-18T01:54:54.324Z,0
2018-02-18T01:56:04.077Z,0
2018-02-18T01:57:13.019Z,0
2018-02-18T01:58:21.724Z,0
2018-02-18T01:59:30.696Z,0
2018-02-18T02:00:40.175Z,0
2018-02-18T02:01:49.127Z,0
2018-02-18T02:03:00.656Z,0
2018-02-18T02:04:09.607Z,0
2018-02-18T02:05:19.076Z,0
2018-02-18T02:06:28.027Z,0
2018-02-18T02:07:37.266Z,0
2018-02-18T02:08:46.489Z,0
2018-02-18T02:09:55.977Z,0
2018-02-18T02:11:04.765Z,0
2018-02-18T02:12:13.708Z,0
2018-02-18T02:13:22.704Z,0
2018-02-18T02:14:31.640Z,0
2018-02-18T02:15:40.631Z,0
2018-02-18T02:16:49.606Z,0
2018-02-18T02:17:58.601Z,0
2018-02-18T02:19:08.100Z,0
2018-02-18T02:20:17.880Z,0
2018-02-18T02:21:26.858Z,0
2018-02-18T02:22:36.126Z,0
2018-02-18T02:23:45.144Z,0
2018-02-18T02:24:54.091Z,0
2018-02-18T02:26:03.612Z,0
2018-02-18T02:27:12.318Z,0
2018-02-18T02:28:21.543Z,0
2018-02-18T02:29:31.026Z,0
2018-02-18T02:30:39.997Z,0
2018-02-18T02:31:49.775Z,0
2018-02-18T02:32:59.001Z,0
2018-02-18T02:34:08.259Z,0
2018-02-18T02:35:17.244Z,0
2018-02-18T02:36:26.196Z,0
2018-02-18T02:37:35.740Z,0
2018-02-18T02:38:44.991Z,0
2018-02-18T02:39:54.480Z,0
2018-02-18T02:41:03.712Z,0
2018-02-18T02:42:12.985Z,0
2018-02-18T02:43:22.210Z,0
2018-02-18T02:44:31.194Z,0
2018-02-18T02:45:40.475Z,0
2018-02-18T02:46:49.723Z,0
2018-02-18T02:47:59.241Z,0
2018-02-18T02:49:08.747Z,0
2018-02-18T02:50:18.256Z,0
2018-02-18T02:51:27.728Z,0
2018-02-18T02:52:36.675Z,0
2018-02-18T02:53:45.636Z,0
2018-02-18T02:54:54.894Z,0
2018-02-18T02:56:04.365Z,0
2018-02-18T02:57:14.411Z,0
2018-02-18T02:58:24.207Z,0
2018-02-18T02:59:33.432Z,0
2018-02-18T03:00:43.161Z,0
2018-02-18T03:01:52.163Z,0
2018-02-18T03:03:01.633Z,0
2018-02-18T03:04:10.603Z,0
2018-02-18T03:05:19.851Z,0
2018-02-18T03:06:28.858Z,0
2018-02-18T03:07:37.552Z,0
2018-02-18T03:08:46.248Z,0
2018-02-18T03:09:55.744Z,0
2018-02-18T03:11:04.990Z,0
2018-02-18T03:12:13.965Z,0
2018-02-18T03:13:22.921Z,0
2018-02-18T03:14:32.399Z,0
2018-02-18T03:15:41.138Z,0
2018-02-18T03:16:50.102Z,0
2018-02-18T03:17:59.053Z,0
2018-02-18T03:19:07.741Z,0
2018-02-18T03:20:17.496Z,0
2018-02-18T03:21:26.200Z,0
2018-02-18T03:22:35.171Z,0
2018-02-18T03:23:44.424Z,0
2018-02-18T03:24:53.657Z,0
2018-02-18T03:26:02.607Z,0
2018-02-18T03:27:11.901Z,0
2018-02-18T03:28:21.123Z,0
2018-02-18T03:29:30.087Z,0
2018-02-18T03:30:39.368Z,0
2018-02-18T03:31:48.361Z,0
2018-02-18T03:32:57.325Z,0
2018-02-18T03:34:06.312Z,0
2018-02-18T03:35:15.284Z,0
2018-02-18T03:36:24.535Z,0
2018-02-18T03:37:33.786Z,0
2018-02-18T03:38:42.741Z,0
2018-02-18T03:39:51.693Z,0
2018-02-18T03:41:00.384Z,0
2018-02-18T03:42:09.080Z,0
2018-02-18T03:43:18.293Z,0
2018-02-18T03:44:27.258Z,0
2018-02-18T03:45:36.781Z,0
2018-02-18T03:46:46.000Z,0
2018-02-18T03:47:54.944Z,0
2018-02-18T03:49:03.896Z,0
2018-02-18T03:50:13.116Z,0
2018-02-18T03:51:22.875Z,0
2018-02-18T03:52:32.078Z,0
2018-02-18T03:53:41.307Z,0
2018-02-18T03:54:49.969Z,0
2018-02-18T03:55:58.691Z,0
2018-02-18T03:57:07.394Z,0
2018-02-18T03:58:16.606Z,0
2018-02-18T03:59:25.548Z,0
2018-02-18T04:00:34.547Z,0
2018-02-18T04:01:43.758Z,0
2018-02-18T04:02:52.954Z,0
2018-02-18T04:04:02.189Z,0
2018-02-18T04:05:11.419Z,0
2018-02-18T04:06:20.106Z,0
2018-02-18T04:07:29.046Z,0
2018-02-18T04:08:38.537Z,0
2018-02-18T04:09:47.226Z,0
2018-02-18T04:10:56.954Z,0
2018-02-18T04:12:06.449Z,0
2018-02-18T04:13:15.672Z,0
2018-02-18T04:14:24.944Z,0
2018-02-18T04:15:34.128Z,0
2018-02-18T04:16:43.116Z,0
2018-02-18T04:17:52.538Z,0
2018-02-18T04:19:02.038Z,0
2018-02-18T04:20:11.290Z,0
2018-02-18T04:21:20.240Z,0
2018-02-18T04:22:29.462Z,0
2018-02-18T04:23:38.155Z,0
2018-02-18T04:24:46.863Z,0
2018-02-18T04:25:55.539Z,0
2018-02-18T04:27:05.277Z,0
2018-02-18T04:28:14.257Z,0
2018-02-18T04:29:23.796Z,0
2018-02-18T04:30:32.527Z,0
2018-02-18T04:31:41.211Z,0
2018-02-18T04:32:50.168Z,0
2018-02-18T04:33:59.384Z,0
2018-02-18T04:35:08.896Z,0
2018-02-18T04:36:17.864Z,0
2018-02-18T04:37:27.088Z,0
2018-02-18T04:38:35.776Z,0
2018-02-18T04:39:44.769Z,0
2018-02-18T04:40:54.558Z,0
2018-02-18T04:42:03.560Z,0
2018-02-18T04:43:13.035Z,0
2018-02-18T04:44:22.009Z,0
2018-02-18T04:45:31.024Z,0
2018-02-18T04:46:39.984Z,0
2018-02-18T04:47:49.244Z,0
2018-02-18T04:48:58.455Z,0
2018-02-18T04:50:07.679Z,0
2018-02-18T04:51:16.658Z,0
2018-02-18T04:52:25.681Z,0
2018-02-18T04:53:34.749Z,0
2018-02-18T04:54:43.688Z,0
2018-02-18T04:55:52.911Z,0
2018-02-18T04:57:02.122Z,0
2018-02-18T04:58:11.085Z,0
2018-02-18T04:59:20.598Z,0
2018-02-18T05:00:29.837Z,0
2018-02-18T05:01:39.055Z,0
2018-02-18T05:02:48.585Z,0
2018-02-18T05:03:57.804Z,0
2018-02-18T05:05:07.008Z,0
2018-02-18T05:06:15.953Z,0
2018-02-18T05:07:25.453Z,0
2018-02-18T05:08:34.922Z,0
2018-02-18T05:09:43.920Z,0
2018-02-18T05:10:52.886Z,0
2018-02-18T05:12:02.111Z,0
2018-02-18T05:13:11.083Z,0
2018-02-18T05:14:20.306Z,0
2018-02-18T05:15:29.320Z,0
2018-02-18T05:16:38.817Z,0
2018-02-18T05:17:47.491Z,0
2018-02-18T05:18:56.710Z,0
2018-02-18T05:20:05.652Z,0
2018-02-18T05:21:14.425Z,0
2018-02-18T05:22:23.375Z,0
2018-02-18T05:23:32.609Z,0
2018-02-18T05:24:41.845Z,0
2018-02-18T05:25:50.531Z,0
2018-02-18T05:26:59.268Z,0
2018-02-18T05:28:08.216Z,0
2018-02-18T05:29:17.697Z,0
2018-02-18T05:30:27.195Z,0
2018-02-18T05:31:36.404Z,0
2018-02-18T05:32:45.115Z,0
2018-02-18T05:33:54.365Z,0
2018-02-18T05:35:03.589Z,0
2018-02-18T05:36:13.158Z,0
2018-02-18T05:37:21.963Z,0
2018-02-18T05:38:30.899Z,0
2018-02-18T05:39:40.364Z,0
2018-02-18T05:40:49.316Z,0
2018-02-18T05:41:58.882Z,0
2018-02-18T05:43:07.848Z,0
2018-02-18T05:44:16.868Z,0
2018-02-18T05:45:26.132Z,0
2018-02-18T05:46:35.631Z,0
2018-02-18T05:47:44.582Z,0
2018-02-18T05:48:53.540Z,0
2018-02-18T05:50:02.493Z,0
2018-02-18T05:51:11.435Z,0
2018-02-18T05:52:20.391Z,0
2018-02-18T05:53:29.367Z,0
2018-02-18T05:54:38.329Z,0
2018-02-18T05:55:47.292Z,0
2018-02-18T05:56:56.525Z,0
2018-02-18T05:58:05.733Z,0
2018-02-18T05:59:14.711Z,0
2018-02-18T06:00:23.915Z,0
2018-02-18T06:01:33.164Z,0
2018-02-18T06:02:41.878Z,0
2018-02-18T06:03:51.093Z,0
2018-02-18T06:05:00.054Z,0
2018-02-18T06:06:09.823Z,0
2018-02-18T06:07:18.817Z,0
2018-02-18T06:08:27.807Z,0
2018-02-18T06:09:36.765Z,0
2018-02-18T06:10:46.536Z,0
2018-02-18T06:11:55.768Z,0
2018-02-18T06:13:04.750Z,0
2018-02-18T06:14:13.717Z,4
2018-02-18T06:15:23.183Z,0
2018-02-18T06:16:32.680Z,4
2018-02-18T06:17:42.435Z,4
2018-02-18T06:18:51.658Z,4
2018-02-18T06:20:01.397Z,4
2018-02-18T06:21:10.623Z,4
2018-02-18T06:22:20.089Z,4
2018-02-18T06:23:29.337Z,12
2018-02-18T06:24:38.331Z,12
2018-02-18T06:25:47.288Z,16
2018-02-18T06:26:55.994Z,16
2018-02-18T06:28:05.478Z,16
2018-02-18T06:29:14.439Z,20
2018-02-18T06:30:23.385Z,24
2018-02-18T06:31:32.638Z,28
2018-02-18T06:32:41.911Z,28
2018-02-18T06:33:50.851Z,36
2018-02-18T06:34:59.885Z,40
2018-02-18T06:36:09.355Z,44
2018-02-18T06:37:18.910Z,48
2018-02-18T06:38:28.194Z,56
2018-02-18T06:39:37.410Z,60
2018-02-18T06:40:46.646Z,68
2018-02-18T06:41:55.850Z,76
2018-02-18T06:43:04.807Z,84
2018-02-18T06:44:13.786Z,92
2018-02-18T06:45:22.747Z,100
2018-02-18T06:46:31.946Z,108
2018-02-18T06:47:41.518Z,116
2018-02-18T06:48:50.488Z,124
2018-02-18T06:49:59.425Z,136
2018-02-18T06:51:08.114Z,144
2018-02-18T06:52:16.833Z,152
2018-02-18T06:53:25.532Z,164
2018-02-18T06:54:34.209Z,176
2018-02-18T06:55:43.178Z,188
2018-02-18T06:56:52.417Z,200
2018-02-18T06:58:01.629Z,212
2018-02-18T06:59:10.603Z,224
2018-02-18T07:00:19.548Z,236
2018-02-18T07:01:28.769Z,248
2018-02-18T07:02:37.990Z,260
2018-02-18T07:03:46.939Z,272
2018-02-18T07:04:56.190Z,284
2018-02-18T07:06:05.665Z,296
2018-02-18T07:07:14.902Z,308
2018-02-18T07:08:23.584Z,324
2018-02-18T07:09:32.297Z,336
2018-02-18T07:10:41.024Z,348
2018-02-18T07:11:49.973Z,360
2018-02-18T07:12:58.691Z,372
2018-02-18T07:14:07.625Z,384
2018-02-18T07:15:16.574Z,396
2018-02-18T07:16:25.790Z,404
2018-02-18T07:17:34.543Z,420
2018-02-18T07:18:44.031Z,432
2018-02-18T07:19:53.285Z,436
2018-02-18T07:21:03.059Z,452
2018-02-18T07:22:11.805Z,464
2018-02-18T07:23:20.757Z,476
2018-02-18T07:24:29.707Z,488
2018-02-18T07:25:38.967Z,500
2018-02-18T07:26:48.198Z,508
2018-02-18T07:27:57.458Z,520
2018-02-18T07:29:06.686Z,532
2018-02-18T07:30:15.625Z,544
2018-02-18T07:31:24.860Z,556
2018-02-18T07:32:33.562Z,568
2018-02-18T07:33:42.551Z,576
2018-02-18T07:34:51.778Z,588
2018-02-18T07:36:00.734Z,596
2018-02-18T07:37:10.237Z,608
2018-02-18T07:38:19.243Z,612
2018-02-18T07:39:28.257Z,620
2018-02-18T07:40:37.220Z,628
2018-02-18T07:41:46.249Z,636
2018-02-18T07:42:55.243Z,640
2018-02-18T07:44:04.480Z,652
2018-02-18T07:45:13.699Z,656
2018-02-18T07:46:23.490Z,664
2018-02-18T07:47:32.719Z,672
2018-02-18T07:48:41.961Z,676
2018-02-18T07:49:50.908Z,688
2018-02-18T07:50:59.610Z,696
2018-02-18T07:52:08.834Z,704
2018-02-18T07:53:17.778Z,716
2018-02-18T07:54:26.999Z,716
2018-02-18T07:55:36.225Z,724
2018-02-18T07:56:45.163Z,732
2018-02-18T07:57:54.128Z,740
2018-02-18T07:59:03.349Z,752
2018-02-18T08:00:12.576Z,760
2018-02-18T08:01:21.831Z,768
2018-02-18T08:02:30.541Z,772
2018-02-18T08:03:39.786Z,780
2018-02-18T08:04:48.728Z,788
2018-02-18T08:05:57.932Z,796
2018-02-18T08:07:06.642Z,800
2018-02-18T08:08:15.329Z,808
2018-02-18T08:09:24.040Z,816
2018-02-18T08:10:33.003Z,820
2018-02-18T08:11:42.251Z,824
2018-02-18T08:12:51.475Z,828
2018-02-18T08:14:00.420Z,832
2018-02-18T08:15:09.676Z,844
2018-02-18T08:16:18.669Z,844
2018-02-18T08:17:27.356Z,852
2018-02-18T08:18:36.843Z,852
2018-02-18T08:19:45.626Z,864
2018-02-18T08:20:54.446Z,868
2018-02-18T08:22:03.572Z,872
2018-02-18T08:23:13.732Z,880
2018-02-18T08:24:23.805Z,880
2018-02-18T08:25:33.653Z,888
2018-02-18T08:26:42.892Z,896
2018-02-18T08:27:52.194Z,900
2018-02-18T08:29:01.719Z,900
2018-02-18T08:30:10.989Z,904
2018-02-18T08:31:21.014Z,908
2018-02-18T08:32:29.749Z,916
2018-02-18T08:33:38.982Z,924
2018-02-18T08:34:48.160Z,924
2018-02-18T08:35:57.137Z,932
2018-02-18T08:37:06.277Z,936
2018-02-18T08:38:15.305Z,940
2018-02-18T08:39:24.553Z,940
2018-02-18T08:40:33.946Z,932
2018-02-18T08:41:43.018Z,940
2018-02-18T08:42:52.497Z,948
2018-02-18T08:44:01.338Z,944
2018-02-18T08:45:10.616Z,948
2018-02-18T08:46:20.099Z,948
2018-02-18T08:47:29.051Z,944
2018-02-18T08:48:37.752Z,944
2018-02-18T08:49:46.986Z,952
2018-02-18T08:50:56.470Z,940
2018-02-18T08:52:05.196Z,952
2018-02-18T08:53:13.917Z,944
2018-02-18T08:54:22.887Z,940
2018-02-18T08:55:32.121Z,940
2018-02-18T08:56:40.833Z,952
2018-02-18T08:57:50.329Z,948
2018-02-18T08:58:59.075Z,952
2018-02-18T09:00:08.044Z,948
2018-02-18T09:01:17.805Z,948
2018-02-18T09:02:27.369Z,952
2018-02-18T09:03:36.330Z,952
2018-02-18T09:04:45.546Z,952
2018-02-18T09:05:54.287Z,948
2018-02-18T09:07:03.254Z,960
2018-02-18T09:08:13.021Z,952
2018-02-18T09:09:22.494Z,964
2018-02-18T09:10:31.200Z,956
2018-02-18T09:11:40.514Z,952
2018-02-18T09:12:49.487Z,964
2018-02-18T09:13:58.169Z,956
2018-02-18T09:15:08.184Z,956
2018-02-18T09:16:17.459Z,964
2018-02-18T09:17:26.195Z,952
2018-02-18T09:18:35.196Z,956
2018-02-18T09:19:44.194Z,952
2018-02-18T09:20:53.404Z,960
2018-02-18T09:22:02.890Z,960
2018-02-18T09:23:11.609Z,952
2018-02-18T09:24:21.656Z,944
2018-02-18T09:25:30.885Z,956
2018-02-18T09:26:39.873Z,956
2018-02-18T09:27:49.135Z,948
2018-02-18T09:28:58.095Z,948
2018-02-18T09:30:07.625Z,952
2018-02-18T09:31:17.137Z,944
2018-02-18T09:32:26.661Z,940
2018-02-18T09:33:35.610Z,940
2018-02-18T09:34:45.247Z,944
2018-02-18T09:35:54.743Z,940
2018-02-18T09:37:04.317Z,936
2018-02-18T09:38:13.792Z,940
2018-02-18T09:39:23.267Z,940
2018-02-18T09:40:32.749Z,940
2018-02-18T09:41:41.720Z,936
2018-02-18T09:42:50.668Z,940
2018-02-18T09:44:00.144Z,948
2018-02-18T09:45:09.629Z,944
2018-02-18T09:46:18.575Z,952
2018-02-18T09:47:27.814Z,944
2018-02-18T09:48:37.055Z,936
2018-02-18T09:49:46.511Z,944
2018-02-18T09:50:55.511Z,944
2018-02-18T09:52:04.750Z,944
2018-02-18T09:53:14.265Z,928
2018-02-18T09:54:23.464Z,928
2018-02-18T09:55:33.227Z,924
2018-02-18T09:56:42.175Z,920
2018-02-18T09:57:51.737Z,916
2018-02-18T09:59:01.301Z,932
2018-02-18T10:00:10.286Z,924
2018-02-18T10:01:19.510Z,916
2018-02-18T10:02:28.451Z,916
2018-02-18T10:03:37.699Z,912
2018-02-18T10:04:46.654Z,912
2018-02-18T10:05:55.860Z,896
2018-02-18T10:07:05.080Z,896
2018-02-18T10:08:14.048Z,896
2018-02-18T10:09:23.032Z,892
2018-02-18T10:10:31.750Z,892
2018-02-18T10:11:40.692Z,884
2018-02-18T10:12:50.264Z,892
2018-02-18T10:13:59.291Z,880
2018-02-18T10:15:08.545Z,880
2018-02-18T10:16:17.526Z,876
2018-02-18T10:17:26.292Z,872
2018-02-18T10:18:35.521Z,884
2018-02-18T10:19:44.773Z,868
2018-02-18T10:20:53.731Z,876
2018-02-18T10:22:03.326Z,880
2018-02-18T10:23:12.367Z,872
2018-02-18T10:24:21.770Z,872
2018-02-18T10:25:31.082Z,876
2018-02-18T10:26:40.303Z,868
2018-02-18T10:27:49.165Z,876
2018-02-18T10:29:00.132Z,876
2018-02-18T10:30:09.971Z,864
2018-02-18T10:31:18.925Z,864
2018-02-18T10:32:28.470Z,868
2018-02-18T10:33:38.231Z,872
2018-02-18T10:34:47.489Z,868
2018-02-18T10:35:56.867Z,872
2018-02-18T10:37:05.578Z,868
2018-02-18T10:38:14.892Z,876
2018-02-18T10:39:23.923Z,872
2018-02-18T10:40:33.223Z,884
2018-02-18T10:41:42.484Z,884
2018-02-18T10:42:51.443Z,876
2018-02-18T10:44:00.663Z,876
2018-02-18T10:45:10.868Z,884
2018-02-18T10:46:20.554Z,888
2018-02-18T10:47:30.063Z,888
2018-02-18T10:48:38.771Z,872
2018-02-18T10:49:48.023Z,868
2018-02-18T10:50:58.109Z,872
2018-02-18T10:52:06.824Z,860
2018-02-18T10:53:15.813Z,872
2018-02-18T10:54:24.875Z,872
2018-02-18T10:55:33.841Z,868
2018-02-18T10:56:43.333Z,864
2018-02-18T10:57:53.049Z,856
2018-02-18T10:59:02.599Z,860
2018-02-18T11:00:11.844Z,848
2018-02-18T11:01:20.963Z,852
2018-02-18T11:02:29.657Z,852
2018-02-18T11:03:38.638Z,856
2018-02-18T11:04:48.298Z,860
2018-02-18T11:05:58.317Z,864
2018-02-18T11:07:07.973Z,864
2018-02-18T11:08:17.280Z,856
2018-02-18T11:09:26.807Z,860
2018-02-18T11:10:35.824Z,864
2018-02-18T11:11:45.069Z,860
2018-02-18T11:12:54.876Z,860
2018-02-18T11:14:04.079Z,868
2018-02-18T11:15:12.808Z,868
2018-02-18T11:16:22.288Z,860
2018-02-18T11:17:31.235Z,864
2018-02-18T11:18:40.533Z,852
2018-02-18T11:19:49.787Z,840
2018-02-18T11:20:59.291Z,836
2018-02-18T11:22:08.566Z,856
2018-02-18T11:23:17.333Z,852
2018-02-18T11:24:26.596Z,844
2018-02-18T11:25:35.332Z,844
2018-02-18T11:26:44.282Z,844
2018-02-18T11:27:53.257Z,844
2018-02-18T11:29:02.784Z,848
2018-02-18T11:30:11.771Z,816
2018-02-18T11:31:20.736Z,804
2018-02-18T11:32:29.727Z,808
2018-02-18T11:33:39.256Z,812
2018-02-18T11:34:48.733Z,804
2018-02-18T11:35:58.074Z,800
2018-02-18T11:37:07.600Z,792
2018-02-18T11:38:16.612Z,796
2018-02-18T11:39:25.625Z,796
2018-02-18T11:40:34.334Z,788
2018-02-18T11:41:43.324Z,784
2018-02-18T11:42:52.290Z,788
2018-02-18T11:44:01.770Z,788
2018-02-18T11:45:11.793Z,792
2018-02-18T11:46:21.035Z,796
2018-02-18T11:47:30.025Z,792
2018-02-18T11:48:38.991Z,788
2018-02-18T11:49:48.527Z,780
2018-02-18T11:50:57.478Z,792
2018-02-18T11:52:06.450Z,796
2018-02-18T11:53:15.433Z,808
2018-02-18T11:54:24.751Z,808
2018-02-18T11:55:33.716Z,800
2018-02-18T11:56:42.681Z,800
2018-02-18T11:57:51.945Z,800
2018-02-18T11:59:01.745Z,796
2018-02-18T12:00:10.985Z,804
2018-02-18T12:01:20.485Z,820
2018-02-18T12:02:29.225Z,832
2018-02-18T12:03:38.464Z,848
2018-02-18T12:04:47.729Z,852
2018-02-18T12:05:57.393Z,856
2018-02-18T12:07:06.430Z,856
2018-02-18T12:08:15.677Z,848
2018-02-18T12:09:24.389Z,828
2018-02-18T12:10:33.402Z,808
2018-02-18T12:11:42.369Z,792
2018-02-18T12:12:51.607Z,776
2018-02-18T12:14:00.831Z,768
2018-02-18T12:15:09.838Z,756
2018-02-18T12:16:18.591Z,756
2018-02-18T12:17:27.865Z,776
2018-02-18T12:18:37.642Z,784
2018-02-18T12:19:47.181Z,776
2018-02-18T12:20:56.408Z,768
2018-02-18T12:22:05.662Z,768
2018-02-18T12:23:14.880Z,760
2018-02-18T12:24:24.102Z,752
2018-02-18T12:25:33.363Z,744
2018-02-18T12:26:42.026Z,736
2018-02-18T12:27:51.249Z,732
2018-02-18T12:29:00.258Z,736
2018-02-18T12:30:09.195Z,732
2018-02-18T12:31:18.433Z,728
2018-02-18T12:32:27.669Z,724
2018-02-18T12:33:36.649Z,728
2018-02-18T12:34:45.865Z,724
2018-02-18T12:35:55.100Z,724
2018-02-18T12:37:04.063Z,724
2018-02-18T12:38:13.090Z,720
2018-02-18T12:39:22.342Z,716
2018-02-18T12:40:31.026Z,712
2018-02-18T12:41:40.278Z,712
2018-02-18T12:42:49.242Z,712
2018-02-18T12:43:58.233Z,712
2018-02-18T12:45:07.438Z,708
2018-02-18T12:46:16.461Z,708
2018-02-18T12:47:25.723Z,708
2018-02-18T12:48:35.202Z,708
2018-02-18T12:49:44.219Z,712
2018-02-18T12:50:53.700Z,712
2018-02-18T12:52:02.725Z,712
2018-02-18T12:53:12.159Z,716
2018-02-18T12:54:21.679Z,712
2018-02-18T12:55:30.393Z,716
2018-02-18T12:56:39.317Z,712
2018-02-18T12:57:48.378Z,712
2018-02-18T12:58:57.340Z,712
2018-02-18T13:00:06.584Z,712
2018-02-18T13:01:15.803Z,708
2018-02-18T13:02:24.505Z,708
2018-02-18T13:03:33.998Z,712
2018-02-18T13:04:43.231Z,712
2018-02-18T13:05:52.975Z,712
2018-02-18T13:07:01.929Z,712
2018-02-18T13:08:11.747Z,712
2018-02-18T13:09:20.480Z,708
2018-02-18T13:10:29.436Z,708
2018-02-18T13:11:38.400Z,708
2018-02-18T13:12:47.341Z,708
2018-02-18T13:13:56.561Z,708
2018-02-18T13:15:05.256Z,708
2018-02-18T13:16:13.938Z,712
2018-02-18T13:17:23.145Z,712
2018-02-18T13:18:31.830Z,716
2018-02-18T13:19:41.038Z,720
2018-02-18T13:20:49.991Z,728
2018-02-18T13:21:59.284Z,728
2018-02-18T13:23:08.245Z,736
2018-02-18T13:24:16.950Z,744
2018-02-18T13:25:26.191Z,756
2018-02-18T13:26:35.151Z,760
2018-02-18T13:27:44.641Z,760
2018-02-18T13:28:53.607Z,760
2018-02-18T13:30:02.317Z,764
2018-02-18T13:31:11.564Z,764
2018-02-18T13:32:21.183Z,768
2018-02-18T13:33:30.421Z,772
2018-02-18T13:34:39.409Z,764
2018-02-18T13:35:48.415Z,756
2018-02-18T13:36:57.672Z,752
2018-02-18T13:38:06.885Z,752
2018-02-18T13:39:16.125Z,748
2018-02-18T13:40:24.820Z,748
2018-02-18T13:41:33.798Z,748
2018-02-18T13:42:42.773Z,752
2018-02-18T13:43:51.990Z,752
2018-02-18T13:45:00.712Z,748
2018-02-18T13:46:09.950Z,744
2018-02-18T13:47:18.912Z,740
2018-02-18T13:48:27.884Z,744
2018-02-18T13:49:36.845Z,740
2018-02-18T13:50:46.342Z,736
2018-02-18T13:51:55.581Z,736
2018-02-18T13:53:04.543Z,740
2018-02-18T13:54:14.038Z,732
2018-02-18T13:55:23.274Z,740
2018-02-18T13:56:32.263Z,768
2018-02-18T13:57:41.488Z,772
2018-02-18T13:58:51.053Z,760
2018-02-18T14:00:00.285Z,752
2018-02-18T14:01:10.060Z,764
2018-02-18T14:02:19.313Z,800
2018-02-18T14:03:29.378Z,820
2018-02-18T14:04:38.369Z,824
2018-02-18T14:05:47.327Z,828
2018-02-18T14:06:56.580Z,828
2018-02-18T14:08:05.577Z,824
2018-02-18T14:09:15.124Z,824
2018-02-18T14:10:23.845Z,824
2018-02-18T14:11:33.424Z,832
2018-02-18T14:12:42.436Z,840
2018-02-18T14:13:52.233Z,840
2018-02-18T14:15:01.511Z,836
2018-02-18T14:16:10.540Z,828
2018-02-18T14:17:19.846Z,800
2018-02-18T14:18:28.579Z,792
2018-02-18T14:19:37.864Z,796
2018-02-18T14:20:46.855Z,784
2018-02-18T14:21:56.384Z,772
2018-02-18T14:23:05.219Z,764
2018-02-18T14:24:14.768Z,752
2018-02-18T14:25:23.794Z,748
2018-02-18T14:26:33.601Z,744
2018-02-18T14:27:42.621Z,744
2018-02-18T14:28:51.643Z,744
2018-02-18T14:30:01.040Z,740
2018-02-18T14:31:10.344Z,740
2018-02-18T14:32:19.374Z,748
2018-02-18T14:33:29.186Z,756
2018-02-18T14:34:38.187Z,772
2018-02-18T14:35:48.010Z,796
2018-02-18T14:36:57.073Z,812
2018-02-18T14:38:06.778Z,832
2018-02-18T14:39:15.756Z,852
2018-02-18T14:40:25.279Z,872
2018-02-18T14:41:34.318Z,884
2018-02-18T14:42:43.064Z,892
2018-02-18T14:43:52.108Z,900
2018-02-18T14:45:01.651Z,912
2018-02-18T14:46:10.659Z,928
2018-02-18T14:47:19.629Z,940
2018-02-18T14:48:29.196Z,952
2018-02-18T14:49:37.923Z,964
2018-02-18T14:50:46.912Z,976
2018-02-18T14:51:55.598Z,996
2018-02-18T14:53:04.549Z,1020
2018-02-18T14:54:13.324Z,1028
2018-02-18T14:55:22.405Z,1040
2018-02-18T14:56:31.397Z,1040
2018-02-18T14:57:40.619Z,1028
2018-02-18T14:58:49.822Z,1012
2018-02-18T14:59:58.833Z,988
2018-02-18T15:01:07.899Z,968
2018-02-18T15:02:16.865Z,944
2018-02-18T15:03:25.905Z,924
2018-02-18T15:04:34.653Z,896
2018-02-18T15:05:43.423Z,868
2018-02-18T15:06:52.407Z,844
2018-02-18T15:08:01.385Z,824
2018-02-18T15:09:10.630Z,800
2018-02-18T15:10:19.867Z,788
2018-02-18T15:11:29.144Z,792
2018-02-18T15:12:38.360Z,788
2018-02-18T15:13:47.104Z,788
2018-02-18T15:14:56.092Z,784
2018-02-18T15:16:05.128Z,780
2018-02-18T15:17:14.657Z,776
2018-02-18T15:18:23.685Z,776
2018-02-18T15:19:32.984Z,768
2018-02-18T15:20:42.260Z,756
2018-02-18T15:21:50.968Z,736
2018-02-18T15:23:00.204Z,720
2018-02-18T15:24:09.682Z,696
2018-02-18T15:25:18.381Z,672
2018-02-18T15:26:27.882Z,644
2018-02-18T15:27:37.098Z,612
2018-02-18T15:28:46.119Z,592
2018-02-18T15:29:55.400Z,576
2018-02-18T15:31:04.648Z,560
2018-02-18T15:32:13.713Z,552
2018-02-18T15:33:22.719Z,552
2018-02-18T15:34:31.673Z,548
2018-02-18T15:35:40.893Z,552
2018-02-18T15:36:49.592Z,560
2018-02-18T15:37:58.949Z,564
2018-02-18T15:39:07.744Z,572
2018-02-18T15:40:17.005Z,576
2018-02-18T15:41:25.765Z,576
2018-02-18T15:42:35.032Z,568
2018-02-18T15:43:43.990Z,560
2018-02-18T15:44:52.671Z,552
2018-02-18T15:46:02.164Z,536
2018-02-18T15:47:11.198Z,520
2018-02-18T15:48:20.705Z,492
2018-02-18T15:49:30.002Z,468
2018-02-18T15:50:38.958Z,444
2018-02-18T15:51:48.163Z,416
2018-02-18T15:52:57.419Z,392
2018-02-18T15:54:06.402Z,380
2018-02-18T15:55:16.190Z,368
2018-02-18T15:56:25.154Z,360
2018-02-18T15:57:34.400Z,356
2018-02-18T15:58:43.920Z,356
2018-02-18T15:59:53.486Z,360
2018-02-18T16:01:02.741Z,360
2018-02-18T16:02:12.297Z,364
2018-02-18T16:03:21.525Z,356
2018-02-18T16:04:30.808Z,348
2018-02-18T16:05:40.389Z,340
2018-02-18T16:06:49.686Z,328
2018-02-18T16:07:59.215Z,316
2018-02-18T16:09:08.427Z,304
2018-02-18T16:10:17.669Z,288
2018-02-18T16:11:26.901Z,280
2018-02-18T16:12:35.874Z,268
2018-02-18T16:13:45.739Z,256
2018-02-18T16:14:55.080Z,244
2018-02-18T16:16:03.787Z,232
2018-02-18T16:17:13.028Z,216
2018-02-18T16:18:22.511Z,208
2018-02-18T16:19:31.721Z,200